sensor_id;sensor_type;location;lat;lon;timestamp;temperature;humidity
18218;DHT22;9234;49.344;11.120;2023-05-07T00:01:40;11.50;99.90
18218;DHT22;9234;49.344;11.120;2023-05-07T00:04:08;11.50;99.90
18218;DHT22;9234;49.344;11.120;2023-05-07T00:06:39;11.50;99.90
18218;DHT22;9234;49.344;11.120;2023-05-07T00:09:07;11.40;99.90
18218;DHT22;9234;49.344;11.120;2023-05-07T00:11:35;11.40;99.90
18218;DHT22;9234;49.344;11.120;2023-05-07T00:14:03;11.50;99.90
18218;DHT22;9234;49.344;11.120;2023-05-07T00:16:32;11.40;99.90
18218;DHT22;9234;49.344;11.120;2023-05-07T00:19:00;11.40;99.90
18218;DHT22;9234;49.344;11.120;2023-05-07T00:21:28;11.50;99.90
18218;DHT22;9234;49.344;11.120;2023-05-07T00:23:58;11.50;99.90
18218;DHT22;9234;49.344;11.120;2023-05-07T00:26:26;11.50;99.90
18218;DHT22;9234;49.344;11.120;2023-05-07T00:28:55;11.60;99.90
18218;DHT22;9234;49.344;11.120;2023-05-07T00:31:23;11.60;99.90
18218;DHT22;9234;49.344;11.120;2023-05-07T00:33:52;11.60;99.90
18218;DHT22;9234;49.344;11.120;2023-05-07T00:36:20;11.60;99.90
18218;DHT22;9234;49.344;11.120;2023-05-07T00:38:48;11.60;99.90
18218;DHT22;9234;49.344;11.120;2023-05-07T00:41:17;11.60;99.90
18218;DHT22;9234;49.344;11.120;2023-05-07T00:43:46;11.70;99.90
18218;DHT22;9234;49.344;11.120;2023-05-07T00:46:15;11.70;99.90
18218;DHT22;9234;49.344;11.120;2023-05-07T00:48:44;11.70;99.90
18218;DHT22;9234;49.344;11.120;2023-05-07T00:51:13;11.70;99.90
18218;DHT22;9234;49.344;11.120;2023-05-07T00:53:42;11.70;99.90
18218;DHT22;9234;49.344;11.120;2023-05-07T00:56:11;11.70;99.90
18218;DHT22;9234;49.344;11.120;2023-05-07T00:58:41;11.70;99.90
18218;DHT22;9234;49.344;11.120;2023-05-07T01:01:09;11.70;99.90
18218;DHT22;9234;49.344;11.120;2023-05-07T01:03:38;11.70;99.90
18218;DHT22;9234;49.344;11.120;2023-05-07T01:06:07;11.80;99.90
18218;DHT22;9234;49.344;11.120;2023-05-07T01:08:39;11.80;99.90
18218;DHT22;9234;49.344;11.120;2023-05-07T01:11:10;11.80;99.90
18218;DHT22;9234;49.344;11.120;2023-05-07T01:13:40;11.80;99.90
18218;DHT22;9234;49.344;11.120;2023-05-07T01:16:09;11.80;99.90
18218;DHT22;9234;49.344;11.120;2023-05-07T01:18:38;11.90;99.90
18218;DHT22;9234;49.344;11.120;2023-05-07T01:21:07;11.90;99.90
18218;DHT22;9234;49.344;11.120;2023-05-07T01:23:41;11.90;99.90
18218;DHT22;9234;49.344;11.120;2023-05-07T01:26:09;11.90;99.90
18218;DHT22;9234;49.344;11.120;2023-05-07T01:28:37;11.90;99.90
18218;DHT22;9234;49.344;11.120;2023-05-07T01:31:06;11.90;99.90
18218;DHT22;9234;49.344;11.120;2023-05-07T01:33:38;11.90;99.90
18218;DHT22;9234;49.344;11.120;2023-05-07T01:36:09;11.90;99.90
18218;DHT22;9234;49.344;11.120;2023-05-07T01:38:41;11.90;99.90
18218;DHT22;9234;49.344;11.120;2023-05-07T01:41:10;12.00;99.90
18218;DHT22;9234;49.344;11.120;2023-05-07T01:43:40;12.00;99.90
18218;DHT22;9234;49.344;11.120;2023-05-07T01:46:09;12.00;99.90
18218;DHT22;9234;49.344;11.120;2023-05-07T01:48:38;12.00;99.90
18218;DHT22;9234;49.344;11.120;2023-05-07T01:51:07;12.10;99.90
18218;DHT22;9234;49.344;11.120;2023-05-07T01:53:36;12.00;99.90
18218;DHT22;9234;49.344;11.120;2023-05-07T01:56:07;12.10;99.90
18218;DHT22;9234;49.344;11.120;2023-05-07T01:58:37;12.10;99.90
18218;DHT22;9234;49.344;11.120;2023-05-07T02:01:07;12.10;99.90
18218;DHT22;9234;49.344;11.120;2023-05-07T02:03:36;12.10;99.90
18218;DHT22;9234;49.344;11.120;2023-05-07T02:06:11;12.10;99.90
18218;DHT22;9234;49.344;11.120;2023-05-07T02:08:39;12.00;99.90
18218;DHT22;9234;49.344;11.120;2023-05-07T02:11:10;12.00;99.90
18218;DHT22;9234;49.344;11.120;2023-05-07T02:13:38;12.00;99.90
18218;DHT22;9234;49.344;11.120;2023-05-07T02:16:07;11.90;99.90
18218;DHT22;9234;49.344;11.120;2023-05-07T02:18:35;11.90;99.90
18218;DHT22;9234;49.344;11.120;2023-05-07T02:21:03;11.90;99.90
18218;DHT22;9234;49.344;11.120;2023-05-07T02:23:32;11.80;99.90
18218;DHT22;9234;49.344;11.120;2023-05-07T02:26:00;11.80;99.90
18218;DHT22;9234;49.344;11.120;2023-05-07T02:28:30;11.80;99.90
18218;DHT22;9234;49.344;11.120;2023-05-07T02:31:03;11.80;99.90
18218;DHT22;9234;49.344;11.120;2023-05-07T02:33:32;11.70;99.90
18218;DHT22;9234;49.344;11.120;2023-05-07T02:36:07;11.70;99.90
18218;DHT22;9234;49.344;11.120;2023-05-07T02:38:40;11.60;99.90
18218;DHT22;9234;49.344;11.120;2023-05-07T02:41:09;11.60;99.90
18218;DHT22;9234;49.344;11.120;2023-05-07T02:43:39;11.60;99.90
18218;DHT22;9234;49.344;11.120;2023-05-07T02:46:08;11.50;99.90
18218;DHT22;9234;49.344;11.120;2023-05-07T02:48:41;11.50;99.90
18218;DHT22;9234;49.344;11.120;2023-05-07T02:51:09;11.40;99.90
18218;DHT22;9234;49.344;11.120;2023-05-07T02:53:40;11.40;99.90
18218;DHT22;9234;49.344;11.120;2023-05-07T02:56:08;11.40;99.90
18218;DHT22;9234;49.344;11.120;2023-05-07T02:58:36;11.30;99.90
18218;DHT22;9234;49.344;11.120;2023-05-07T03:01:07;11.30;99.90
18218;DHT22;9234;49.344;11.120;2023-05-07T03:03:52;11.30;99.90
18218;DHT22;9234;49.344;11.120;2023-05-07T03:06:20;11.30;99.90
18218;DHT22;9234;49.344;11.120;2023-05-07T03:08:48;11.20;99.90
18218;DHT22;9234;49.344;11.120;2023-05-07T03:11:16;11.20;99.90
18218;DHT22;9234;49.344;11.120;2023-05-07T03:13:46;11.20;99.90
18218;DHT22;9234;49.344;11.120;2023-05-07T03:16:17;11.20;99.90
18218;DHT22;9234;49.344;11.120;2023-05-07T03:18:45;11.20;99.90
18218;DHT22;9234;49.344;11.120;2023-05-07T03:21:14;11.10;99.90
18218;DHT22;9234;49.344;11.120;2023-05-07T03:23:42;11.10;99.90
18218;DHT22;9234;49.344;11.120;2023-05-07T03:26:10;11.10;99.90
18218;DHT22;9234;49.344;11.120;2023-05-07T03:28:38;11.10;99.90
18218;DHT22;9234;49.344;11.120;2023-05-07T03:31:12;11.10;99.90
18218;DHT22;9234;49.344;11.120;2023-05-07T03:33:50;11.10;99.90
18218;DHT22;9234;49.344;11.120;2023-05-07T03:36:19;11.10;99.90
18218;DHT22;9234;49.344;11.120;2023-05-07T03:38:49;11.10;99.90
18218;DHT22;9234;49.344;11.120;2023-05-07T03:41:20;11.10;99.90
18218;DHT22;9234;49.344;11.120;2023-05-07T03:43:48;11.10;99.90
18218;DHT22;9234;49.344;11.120;2023-05-07T03:46:18;11.10;99.90
18218;DHT22;9234;49.344;11.120;2023-05-07T03:48:46;11.10;99.90
18218;DHT22;9234;49.344;11.120;2023-05-07T03:51:15;11.10;99.90
18218;DHT22;9234;49.344;11.120;2023-05-07T03:53:44;11.10;99.90
18218;DHT22;9234;49.344;11.120;2023-05-07T03:56:12;11.10;99.90
18218;DHT22;9234;49.344;11.120;2023-05-07T03:58:41;11.20;99.90
18218;DHT22;9234;49.344;11.120;2023-05-07T04:01:10;11.20;99.90
18218;DHT22;9234;49.344;11.120;2023-05-07T04:03:40;11.20;99.90
18218;DHT22;9234;49.344;11.120;2023-05-07T04:06:08;11.10;99.90
18218;DHT22;9234;49.344;11.120;2023-05-07T04:08:37;11.10;99.90
18218;DHT22;9234;49.344;11.120;2023-05-07T04:11:06;11.20;99.90
18218;DHT22;9234;49.344;11.120;2023-05-07T04:13:36;11.10;99.90
18218;DHT22;9234;49.344;11.120;2023-05-07T04:16:07;11.10;99.90
18218;DHT22;9234;49.344;11.120;2023-05-07T04:18:37;11.10;99.90
18218;DHT22;9234;49.344;11.120;2023-05-07T04:21:13;11.10;99.90
18218;DHT22;9234;49.344;11.120;2023-05-07T04:23:43;11.10;99.90
18218;DHT22;9234;49.344;11.120;2023-05-07T04:26:12;11.10;99.90
18218;DHT22;9234;49.344;11.120;2023-05-07T04:28:43;11.20;99.90
18218;DHT22;9234;49.344;11.120;2023-05-07T04:31:12;11.20;99.90
18218;DHT22;9234;49.344;11.120;2023-05-07T04:33:40;11.20;99.90
18218;DHT22;9234;49.344;11.120;2023-05-07T04:36:13;11.20;99.90
18218;DHT22;9234;49.344;11.120;2023-05-07T04:38:50;11.30;99.90
18218;DHT22;9234;49.344;11.120;2023-05-07T04:41:19;11.30;99.90
18218;DHT22;9234;49.344;11.120;2023-05-07T04:43:48;11.30;99.90
18218;DHT22;9234;49.344;11.120;2023-05-07T04:46:18;11.40;99.90
18218;DHT22;9234;49.344;11.120;2023-05-07T04:48:48;11.40;99.90
18218;DHT22;9234;49.344;11.120;2023-05-07T04:51:18;11.50;99.90
18218;DHT22;9234;49.344;11.120;2023-05-07T04:53:47;11.50;99.90
18218;DHT22;9234;49.344;11.120;2023-05-07T04:56:16;11.60;99.90
18218;DHT22;9234;49.344;11.120;2023-05-07T04:58:45;11.60;99.90
18218;DHT22;9234;49.344;11.120;2023-05-07T05:01:16;11.70;99.90
18218;DHT22;9234;49.344;11.120;2023-05-07T05:03:45;11.80;99.90
18218;DHT22;9234;49.344;11.120;2023-05-07T05:06:13;11.90;99.90
18218;DHT22;9234;49.344;11.120;2023-05-07T05:08:43;11.90;99.90
18218;DHT22;9234;49.344;11.120;2023-05-07T05:11:11;12.00;99.90
18218;DHT22;9234;49.344;11.120;2023-05-07T05:13:40;12.10;99.90
18218;DHT22;9234;49.344;11.120;2023-05-07T05:16:13;12.20;99.90
18218;DHT22;9234;49.344;11.120;2023-05-07T05:18:41;12.30;99.90
18218;DHT22;9234;49.344;11.120;2023-05-07T05:21:12;12.40;99.90
18218;DHT22;9234;49.344;11.120;2023-05-07T05:23:44;12.50;99.90
18218;DHT22;9234;49.344;11.120;2023-05-07T05:26:17;12.60;99.90
18218;DHT22;9234;49.344;11.120;2023-05-07T05:28:45;12.70;99.90
18218;DHT22;9234;49.344;11.120;2023-05-07T05:31:15;12.80;99.90
18218;DHT22;9234;49.344;11.120;2023-05-07T05:33:44;13.00;99.90
18218;DHT22;9234;49.344;11.120;2023-05-07T05:36:13;13.10;99.90
18218;DHT22;9234;49.344;11.120;2023-05-07T05:38:44;13.20;99.90
18218;DHT22;9234;49.344;11.120;2023-05-07T05:41:13;13.30;99.90
18218;DHT22;9234;49.344;11.120;2023-05-07T05:43:41;13.40;99.90
18218;DHT22;9234;49.344;11.120;2023-05-07T05:46:10;13.50;99.90
18218;DHT22;9234;49.344;11.120;2023-05-07T05:48:38;13.60;99.90
18218;DHT22;9234;49.344;11.120;2023-05-07T05:51:08;13.70;99.90
18218;DHT22;9234;49.344;11.120;2023-05-07T05:53:36;13.80;99.90
18218;DHT22;9234;49.344;11.120;2023-05-07T05:56:07;13.90;99.90
18218;DHT22;9234;49.344;11.120;2023-05-07T05:58:37;14.00;99.90
18218;DHT22;9234;49.344;11.120;2023-05-07T06:01:07;14.10;99.90
18218;DHT22;9234;49.344;11.120;2023-05-07T06:03:36;14.20;99.90
18218;DHT22;9234;49.344;11.120;2023-05-07T06:06:11;14.40;99.90
18218;DHT22;9234;49.344;11.120;2023-05-07T06:08:42;14.50;99.90
18218;DHT22;9234;49.344;11.120;2023-05-07T06:11:14;14.50;99.90
18218;DHT22;9234;49.344;11.120;2023-05-07T06:13:45;14.60;99.90
18218;DHT22;9234;49.344;11.120;2023-05-07T06:16:14;14.70;99.90
18218;DHT22;9234;49.344;11.120;2023-05-07T06:18:43;14.80;99.90
18218;DHT22;9234;49.344;11.120;2023-05-07T06:21:13;14.90;99.90
18218;DHT22;9234;49.344;11.120;2023-05-07T06:23:42;15.00;99.90
18218;DHT22;9234;49.344;11.120;2023-05-07T06:26:10;15.00;99.90
18218;DHT22;9234;49.344;11.120;2023-05-07T06:28:42;15.10;99.90
18218;DHT22;9234;49.344;11.120;2023-05-07T06:31:13;15.20;99.90
18218;DHT22;9234;49.344;11.120;2023-05-07T06:33:47;15.30;99.90
18218;DHT22;9234;49.344;11.120;2023-05-07T06:36:15;15.40;99.90
18218;DHT22;9234;49.344;11.120;2023-05-07T06:38:45;15.50;99.90
18218;DHT22;9234;49.344;11.120;2023-05-07T06:41:14;15.60;99.90
18218;DHT22;9234;49.344;11.120;2023-05-07T06:43:44;15.70;99.90
18218;DHT22;9234;49.344;11.120;2023-05-07T06:46:51;15.80;99.90
18218;DHT22;9234;49.344;11.120;2023-05-07T06:49:19;16.00;99.90
18218;DHT22;9234;49.344;11.120;2023-05-07T06:51:49;16.10;99.90
18218;DHT22;9234;49.344;11.120;2023-05-07T06:54:17;16.10;99.90
18218;DHT22;9234;49.344;11.120;2023-05-07T06:56:47;16.20;99.90
18218;DHT22;9234;49.344;11.120;2023-05-07T06:59:17;16.30;99.90
18218;DHT22;9234;49.344;11.120;2023-05-07T07:01:46;16.50;99.90
18218;DHT22;9234;49.344;11.120;2023-05-07T07:04:15;16.70;99.90
18218;DHT22;9234;49.344;11.120;2023-05-07T07:06:48;16.90;99.90
18218;DHT22;9234;49.344;11.120;2023-05-07T07:09:16;17.10;99.90
18218;DHT22;9234;49.344;11.120;2023-05-07T07:11:44;17.30;99.90
18218;DHT22;9234;49.344;11.120;2023-05-07T07:14:13;17.50;99.90
18218;DHT22;9234;49.344;11.120;2023-05-07T07:16:48;17.70;99.90
18218;DHT22;9234;49.344;11.120;2023-05-07T07:19:18;17.80;99.90
18218;DHT22;9234;49.344;11.120;2023-05-07T07:21:49;18.00;99.90
18218;DHT22;9234;49.344;11.120;2023-05-07T07:24:17;18.10;99.90
18218;DHT22;9234;49.344;11.120;2023-05-07T07:26:51;18.10;99.90
18218;DHT22;9234;49.344;11.120;2023-05-07T07:29:23;18.20;99.90
18218;DHT22;9234;49.344;11.120;2023-05-07T07:31:54;18.30;99.90
18218;DHT22;9234;49.344;11.120;2023-05-07T07:34:24;18.40;99.90
18218;DHT22;9234;49.344;11.120;2023-05-07T07:36:52;18.40;99.90
18218;DHT22;9234;49.344;11.120;2023-05-07T07:39:21;18.50;99.90
18218;DHT22;9234;49.344;11.120;2023-05-07T07:41:52;18.50;99.90
18218;DHT22;9234;49.344;11.120;2023-05-07T07:44:21;18.40;99.90
18218;DHT22;9234;49.344;11.120;2023-05-07T07:46:58;18.40;99.90
18218;DHT22;9234;49.344;11.120;2023-05-07T07:49:28;18.50;99.90
18218;DHT22;9234;49.344;11.120;2023-05-07T07:51:59;18.50;99.90
18218;DHT22;9234;49.344;11.120;2023-05-07T07:54:28;18.60;99.90
18218;DHT22;9234;49.344;11.120;2023-05-07T07:56:57;18.60;99.90
18218;DHT22;9234;49.344;11.120;2023-05-07T07:59:26;18.60;99.90
18218;DHT22;9234;49.344;11.120;2023-05-07T08:01:54;18.70;99.90
18218;DHT22;9234;49.344;11.120;2023-05-07T08:04:27;18.80;99.90
18218;DHT22;9234;49.344;11.120;2023-05-07T08:06:57;19.00;99.90
18218;DHT22;9234;49.344;11.120;2023-05-07T08:09:25;19.10;99.90
18218;DHT22;9234;49.344;11.120;2023-05-07T08:11:55;19.20;99.90
18218;DHT22;9234;49.344;11.120;2023-05-07T08:14:23;19.30;99.90
18218;DHT22;9234;49.344;11.120;2023-05-07T08:16:51;19.40;99.90
18218;DHT22;9234;49.344;11.120;2023-05-07T08:19:21;19.60;99.90
18218;DHT22;9234;49.344;11.120;2023-05-07T08:21:51;19.70;99.90
18218;DHT22;9234;49.344;11.120;2023-05-07T08:24:21;19.80;99.90
18218;DHT22;9234;49.344;11.120;2023-05-07T08:26:50;19.90;99.90
18218;DHT22;9234;49.344;11.120;2023-05-07T08:29:18;20.00;99.90
18218;DHT22;9234;49.344;11.120;2023-05-07T08:31:47;20.20;99.90
18218;DHT22;9234;49.344;11.120;2023-05-07T08:34:15;20.40;99.90
18218;DHT22;9234;49.344;11.120;2023-05-07T08:36:46;20.50;99.90
18218;DHT22;9234;49.344;11.120;2023-05-07T08:39:19;20.60;99.90
18218;DHT22;9234;49.344;11.120;2023-05-07T08:41:55;20.70;99.90
18218;DHT22;9234;49.344;11.120;2023-05-07T08:44:26;20.70;99.90
18218;DHT22;9234;49.344;11.120;2023-05-07T08:46:58;20.70;99.90
18218;DHT22;9234;49.344;11.120;2023-05-07T08:49:30;20.70;99.90
18218;DHT22;9234;49.344;11.120;2023-05-07T08:51:59;20.80;99.90
18218;DHT22;9234;49.344;11.120;2023-05-07T08:54:31;20.90;99.90
18218;DHT22;9234;49.344;11.120;2023-05-07T08:57:00;21.10;99.80
18218;DHT22;9234;49.344;11.120;2023-05-07T08:59:30;21.20;99.10
18218;DHT22;9234;49.344;11.120;2023-05-07T09:01:58;21.30;99.30
18218;DHT22;9234;49.344;11.120;2023-05-07T09:04:27;21.50;99.60
18218;DHT22;9234;49.344;11.120;2023-05-07T09:06:55;21.70;98.80
18218;DHT22;9234;49.344;11.120;2023-05-07T09:09:32;21.80;98.40
18218;DHT22;9234;49.344;11.120;2023-05-07T09:12:03;22.00;98.10
18218;DHT22;9234;49.344;11.120;2023-05-07T09:14:33;22.10;98.20
18218;DHT22;9234;49.344;11.120;2023-05-07T09:17:03;22.30;96.20
18218;DHT22;9234;49.344;11.120;2023-05-07T09:19:31;22.30;96.60
18218;DHT22;9234;49.344;11.120;2023-05-07T09:22:03;22.30;96.80
18218;DHT22;9234;49.344;11.120;2023-05-07T09:24:48;22.40;96.60
18218;DHT22;9234;49.344;11.120;2023-05-07T09:27:19;22.60;96.00
18218;DHT22;9234;49.344;11.120;2023-05-07T09:29:47;22.60;94.90
18218;DHT22;9234;49.344;11.120;2023-05-07T09:32:16;22.60;95.20
18218;DHT22;9234;49.344;11.120;2023-05-07T09:34:44;22.60;95.50
18218;DHT22;9234;49.344;11.120;2023-05-07T09:37:15;22.70;94.60
18218;DHT22;9234;49.344;11.120;2023-05-07T09:39:46;22.70;93.90
18218;DHT22;9234;49.344;11.120;2023-05-07T09:42:23;22.70;94.00
18218;DHT22;9234;49.344;11.120;2023-05-07T09:44:56;22.70;94.40
18218;DHT22;9234;49.344;11.120;2023-05-07T09:47:32;22.80;94.60
18218;DHT22;9234;49.344;11.120;2023-05-07T09:50:05;23.10;95.20
18218;DHT22;9234;49.344;11.120;2023-05-07T09:52:40;23.40;94.40
18218;DHT22;9234;49.344;11.120;2023-05-07T09:55:12;23.70;94.30
18218;DHT22;9234;49.344;11.120;2023-05-07T09:57:42;23.80;93.70
18218;DHT22;9234;49.344;11.120;2023-05-07T10:00:13;23.90;92.90
18218;DHT22;9234;49.344;11.120;2023-05-07T10:02:50;24.00;92.30
18218;DHT22;9234;49.344;11.120;2023-05-07T10:05:32;24.10;92.00
18218;DHT22;9234;49.344;11.120;2023-05-07T10:08:01;24.30;91.20
18218;DHT22;9234;49.344;11.120;2023-05-07T10:10:34;24.40;91.80
18218;DHT22;9234;49.344;11.120;2023-05-07T10:13:05;24.60;91.70
18218;DHT22;9234;49.344;11.120;2023-05-07T10:15:41;24.70;91.20
18218;DHT22;9234;49.344;11.120;2023-05-07T10:18:10;24.90;90.40
18218;DHT22;9234;49.344;11.120;2023-05-07T10:20:42;25.00;90.30
18218;DHT22;9234;49.344;11.120;2023-05-07T10:23:15;25.30;90.50
18218;DHT22;9234;49.344;11.120;2023-05-07T10:25:48;25.50;88.90
18218;DHT22;9234;49.344;11.120;2023-05-07T10:28:24;25.60;87.20
18218;DHT22;9234;49.344;11.120;2023-05-07T10:31:01;25.90;88.30
18218;DHT22;9234;49.344;11.120;2023-05-07T10:33:44;26.00;87.20
18218;DHT22;9234;49.344;11.120;2023-05-07T10:36:16;26.00;83.80
18218;DHT22;9234;49.344;11.120;2023-05-07T10:38:46;25.90;84.00
18218;DHT22;9234;49.344;11.120;2023-05-07T10:41:17;25.90;84.20
18218;DHT22;9234;49.344;11.120;2023-05-07T10:43:46;26.10;83.70
18218;DHT22;9234;49.344;11.120;2023-05-07T10:46:25;26.20;82.40
18218;DHT22;9234;49.344;11.120;2023-05-07T10:49:11;26.40;80.30
18218;DHT22;9234;49.344;11.120;2023-05-07T10:52:12;26.70;81.70
18218;DHT22;9234;49.344;11.120;2023-05-07T10:55:20;27.00;81.90
18218;DHT22;9234;49.344;11.120;2023-05-07T10:58:26;27.10;80.00
18218;DHT22;9234;49.344;11.120;2023-05-07T11:01:49;27.10;78.30
18218;DHT22;9234;49.344;11.120;2023-05-07T11:04:24;27.10;76.10
18218;DHT22;9234;49.344;11.120;2023-05-07T11:07:28;27.20;75.30
18218;DHT22;9234;49.344;11.120;2023-05-07T11:10:09;27.20;74.00
18218;DHT22;9234;49.344;11.120;2023-05-07T11:12:54;27.20;74.70
18218;DHT22;9234;49.344;11.120;2023-05-07T11:15:43;27.40;75.80
18218;DHT22;9234;49.344;11.120;2023-05-07T11:18:22;27.50;75.40
18218;DHT22;9234;49.344;11.120;2023-05-07T11:20:54;27.50;75.10
18218;DHT22;9234;49.344;11.120;2023-05-07T11:23:59;27.60;75.40
18218;DHT22;9234;49.344;11.120;2023-05-07T11:26:45;27.80;72.80
18218;DHT22;9234;49.344;11.120;2023-05-07T11:29:17;27.90;72.00
18218;DHT22;9234;49.344;11.120;2023-05-07T11:31:54;28.00;71.70
18218;DHT22;9234;49.344;11.120;2023-05-07T11:34:29;28.30;70.70
18218;DHT22;9234;49.344;11.120;2023-05-07T11:36:58;28.50;69.90
18218;DHT22;9234;49.344;11.120;2023-05-07T11:39:46;28.60;70.10
18218;DHT22;9234;49.344;11.120;2023-05-07T11:42:27;28.80;69.30
18218;DHT22;9234;49.344;11.120;2023-05-07T11:44:56;28.70;66.30
18218;DHT22;9234;49.344;11.120;2023-05-07T11:47:30;28.70;68.30
18218;DHT22;9234;49.344;11.120;2023-05-07T11:50:03;28.80;66.70
18218;DHT22;9234;49.344;11.120;2023-05-07T11:52:34;29.00;67.90
18218;DHT22;9234;49.344;11.120;2023-05-07T11:55:03;29.20;66.50
18218;DHT22;9234;49.344;11.120;2023-05-07T11:57:33;29.40;66.70
18218;DHT22;9234;49.344;11.120;2023-05-07T12:00:03;29.70;64.20
18218;DHT22;9234;49.344;11.120;2023-05-07T12:02:42;30.00;64.70
18218;DHT22;9234;49.344;11.120;2023-05-07T12:05:10;30.20;63.50
18218;DHT22;9234;49.344;11.120;2023-05-07T12:07:39;30.30;60.70
18218;DHT22;9234;49.344;11.120;2023-05-07T12:10:09;30.50;60.50
18218;DHT22;9234;49.344;11.120;2023-05-07T12:12:39;30.60;60.00
18218;DHT22;9234;49.344;11.120;2023-05-07T12:15:09;30.80;60.60
18218;DHT22;9234;49.344;11.120;2023-05-07T12:17:38;30.90;59.70
18218;DHT22;9234;49.344;11.120;2023-05-07T12:20:10;31.00;59.30
18218;DHT22;9234;49.344;11.120;2023-05-07T12:22:38;31.10;58.40
18218;DHT22;9234;49.344;11.120;2023-05-07T12:25:07;31.10;56.60
18218;DHT22;9234;49.344;11.120;2023-05-07T12:27:37;30.80;56.70
18218;DHT22;9234;49.344;11.120;2023-05-07T12:30:10;30.50;57.60
18218;DHT22;9234;49.344;11.120;2023-05-07T12:32:39;30.20;56.70
18218;DHT22;9234;49.344;11.120;2023-05-07T12:35:09;29.80;57.60
18218;DHT22;9234;49.344;11.120;2023-05-07T12:37:38;29.50;57.50
18218;DHT22;9234;49.344;11.120;2023-05-07T12:40:08;29.60;59.90
18218;DHT22;9234;49.344;11.120;2023-05-07T12:42:39;30.00;59.90
18218;DHT22;9234;49.344;11.120;2023-05-07T12:45:10;30.60;59.60
18218;DHT22;9234;49.344;11.120;2023-05-07T12:47:39;31.00;58.10
18218;DHT22;9234;49.344;11.120;2023-05-07T12:50:09;31.20;56.40
18218;DHT22;9234;49.344;11.120;2023-05-07T12:52:38;31.40;56.30
18218;DHT22;9234;49.344;11.120;2023-05-07T12:55:08;31.60;56.60
18218;DHT22;9234;49.344;11.120;2023-05-07T12:57:41;31.70;56.20
18218;DHT22;9234;49.344;11.120;2023-05-07T13:00:10;31.70;55.50
18218;DHT22;9234;49.344;11.120;2023-05-07T13:02:41;31.90;54.30
18218;DHT22;9234;49.344;11.120;2023-05-07T13:05:12;31.80;53.40
18218;DHT22;9234;49.344;11.120;2023-05-07T13:07:41;31.50;53.90
18218;DHT22;9234;49.344;11.120;2023-05-07T13:10:21;31.20;54.30
18218;DHT22;9234;49.344;11.120;2023-05-07T13:12:50;30.90;53.20
18218;DHT22;9234;49.344;11.120;2023-05-07T13:15:19;30.60;55.00
18218;DHT22;9234;49.344;11.120;2023-05-07T13:17:48;30.30;56.00
18218;DHT22;9234;49.344;11.120;2023-05-07T13:20:18;30.20;56.10
18218;DHT22;9234;49.344;11.120;2023-05-07T13:22:46;29.90;56.50
18218;DHT22;9234;49.344;11.120;2023-05-07T13:25:15;29.60;55.90
18218;DHT22;9234;49.344;11.120;2023-05-07T13:27:43;29.40;56.40
18218;DHT22;9234;49.344;11.120;2023-05-07T13:30:13;29.10;56.40
18218;DHT22;9234;49.344;11.120;2023-05-07T13:32:42;28.80;57.80
18218;DHT22;9234;49.344;11.120;2023-05-07T13:35:10;28.70;58.50
18218;DHT22;9234;49.344;11.120;2023-05-07T13:37:40;28.60;58.40
18218;DHT22;9234;49.344;11.120;2023-05-07T13:40:09;28.70;59.80
18218;DHT22;9234;49.344;11.120;2023-05-07T13:42:38;28.80;58.70
18218;DHT22;9234;49.344;11.120;2023-05-07T13:45:09;28.90;58.20
18218;DHT22;9234;49.344;11.120;2023-05-07T13:47:40;28.90;58.40
18218;DHT22;9234;49.344;11.120;2023-05-07T13:50:09;28.70;56.60
18218;DHT22;9234;49.344;11.120;2023-05-07T13:52:42;28.60;57.10
18218;DHT22;9234;49.344;11.120;2023-05-07T13:55:13;28.70;56.50
18218;DHT22;9234;49.344;11.120;2023-05-07T13:57:41;28.80;55.80
18218;DHT22;9234;49.344;11.120;2023-05-07T14:00:10;28.80;55.80
18218;DHT22;9234;49.344;11.120;2023-05-07T14:02:42;28.60;55.80
18218;DHT22;9234;49.344;11.120;2023-05-07T14:05:11;28.40;56.30
18218;DHT22;9234;49.344;11.120;2023-05-07T14:07:41;28.40;57.00
18218;DHT22;9234;49.344;11.120;2023-05-07T14:10:10;28.40;57.50
18218;DHT22;9234;49.344;11.120;2023-05-07T14:12:40;28.50;57.90
18218;DHT22;9234;49.344;11.120;2023-05-07T14:15:10;28.50;57.70
18218;DHT22;9234;49.344;11.120;2023-05-07T14:17:38;28.50;57.70
18218;DHT22;9234;49.344;11.120;2023-05-07T14:20:07;28.40;57.60
18218;DHT22;9234;49.344;11.120;2023-05-07T14:22:37;28.30;57.70
18218;DHT22;9234;49.344;11.120;2023-05-07T14:25:08;28.30;58.60
18218;DHT22;9234;49.344;11.120;2023-05-07T14:27:38;28.40;59.60
18218;DHT22;9234;49.344;11.120;2023-05-07T14:30:07;28.50;59.10
18218;DHT22;9234;49.344;11.120;2023-05-07T14:32:36;28.70;58.10
18218;DHT22;9234;49.344;11.120;2023-05-07T14:35:05;28.90;57.60
18218;DHT22;9234;49.344;11.120;2023-05-07T14:37:33;29.00;56.00
18218;DHT22;9234;49.344;11.120;2023-05-07T14:40:01;28.90;55.60
18218;DHT22;9234;49.344;11.120;2023-05-07T14:42:31;28.70;58.00
18218;DHT22;9234;49.344;11.120;2023-05-07T14:44:59;28.60;58.30
18218;DHT22;9234;49.344;11.120;2023-05-07T14:47:27;28.30;57.10
18218;DHT22;9234;49.344;11.120;2023-05-07T14:49:59;28.00;57.70
18218;DHT22;9234;49.344;11.120;2023-05-07T14:52:28;27.80;57.90
18218;DHT22;9234;49.344;11.120;2023-05-07T14:54:56;27.40;57.80
18218;DHT22;9234;49.344;11.120;2023-05-07T14:57:24;27.10;58.80
18218;DHT22;9234;49.344;11.120;2023-05-07T14:59:53;26.80;59.70
18218;DHT22;9234;49.344;11.120;2023-05-07T15:02:22;26.50;61.00
18218;DHT22;9234;49.344;11.120;2023-05-07T15:04:50;26.30;62.40
18218;DHT22;9234;49.344;11.120;2023-05-07T15:07:18;26.10;63.50
18218;DHT22;9234;49.344;11.120;2023-05-07T15:09:46;25.90;63.70
18218;DHT22;9234;49.344;11.120;2023-05-07T15:12:15;25.80;64.00
18218;DHT22;9234;49.344;11.120;2023-05-07T15:14:43;25.60;64.30
18218;DHT22;9234;49.344;11.120;2023-05-07T15:17:14;25.50;64.10
18218;DHT22;9234;49.344;11.120;2023-05-07T15:19:42;25.40;64.70
18218;DHT22;9234;49.344;11.120;2023-05-07T15:22:10;25.40;65.40
18218;DHT22;9234;49.344;11.120;2023-05-07T15:24:39;25.50;65.90
18218;DHT22;9234;49.344;11.120;2023-05-07T15:27:07;25.50;64.90
18218;DHT22;9234;49.344;11.120;2023-05-07T15:29:36;25.60;64.80
18218;DHT22;9234;49.344;11.120;2023-05-07T15:32:04;25.50;65.10
18218;DHT22;9234;49.344;11.120;2023-05-07T15:34:34;25.50;64.70
18218;DHT22;9234;49.344;11.120;2023-05-07T15:37:03;25.50;65.30
18218;DHT22;9234;49.344;11.120;2023-05-07T15:39:31;25.60;65.80
18218;DHT22;9234;49.344;11.120;2023-05-07T15:41:59;25.70;66.00
18218;DHT22;9234;49.344;11.120;2023-05-07T15:44:28;25.90;66.00
18218;DHT22;9234;49.344;11.120;2023-05-07T15:47:01;26.10;66.30
18218;DHT22;9234;49.344;11.120;2023-05-07T15:49:29;26.30;64.60
18218;DHT22;9234;49.344;11.120;2023-05-07T15:51:59;26.30;64.70
18218;DHT22;9234;49.344;11.120;2023-05-07T15:54:28;26.20;63.20